sensor_id;sensor_type;location;lat;lon;timestamp;P1;durP1;ratioP1;P2;durP2;ratioP2
45136;SDS011;30894;51.740;19.498;2024-01-16T00:01:28;3.15;;;1.63;;
45136;SDS011;30894;51.740;19.498;2024-01-16T00:03:54;3.10;;;1.33;;
45136;SDS011;30894;51.740;19.498;2024-01-16T00:06:21;2.40;;;1.27;;
45136;SDS011;30894;51.740;19.498;2024-01-16T00:08:47;5.57;;;1.52;;
45136;SDS011;30894;51.740;19.498;2024-01-16T00:11:13;2.03;;;1.38;;
45136;SDS011;30894;51.740;19.498;2024-01-16T00:13:39;2.60;;;1.70;;
45136;SDS011;30894;51.740;19.498;2024-01-16T00:16:05;3.30;;;1.58;;
45136;SDS011;30894;51.740;19.498;2024-01-16T00:18:31;5.35;;;1.60;;
45136;SDS011;30894;51.740;19.498;2024-01-16T00:21:00;4.45;;;1.58;;
45136;SDS011;30894;51.740;19.498;2024-01-16T00:23:28;4.28;;;1.88;;
45136;SDS011;30894;51.740;19.498;2024-01-16T00:25:57;4.22;;;1.33;;
45136;SDS011;30894;51.740;19.498;2024-01-16T00:28:23;5.63;;;1.60;;
45136;SDS011;30894;51.740;19.498;2024-01-16T00:30:49;4.32;;;1.67;;
45136;SDS011;30894;51.740;19.498;2024-01-16T00:33:16;5.22;;;1.77;;
45136;SDS011;30894;51.740;19.498;2024-01-16T00:35:42;3.47;;;1.42;;
45136;SDS011;30894;51.740;19.498;2024-01-16T00:38:08;5.82;;;1.65;;
45136;SDS011;30894;51.740;19.498;2024-01-16T00:40:34;5.85;;;1.90;;
45136;SDS011;30894;51.740;19.498;2024-01-16T00:43:00;3.70;;;1.63;;
45136;SDS011;30894;51.740;19.498;2024-01-16T00:45:27;2.78;;;1.20;;
45136;SDS011;30894;51.740;19.498;2024-01-16T00:47:53;2.65;;;1.33;;
45136;SDS011;30894;51.740;19.498;2024-01-16T00:50:20;3.03;;;1.20;;
45136;SDS011;30894;51.740;19.498;2024-01-16T00:52:46;3.55;;;1.48;;
45136;SDS011;30894;51.740;19.498;2024-01-16T00:55:12;4.07;;;2.20;;
45136;SDS011;30894;51.740;19.498;2024-01-16T00:57:38;3.38;;;1.58;;
45136;SDS011;30894;51.740;19.498;2024-01-16T01:00:04;3.22;;;1.63;;
45136;SDS011;30894;51.740;19.498;2024-01-16T01:02:31;5.47;;;2.33;;
45136;SDS011;30894;51.740;19.498;2024-01-16T01:04:58;5.93;;;2.10;;
45136;SDS011;30894;51.740;19.498;2024-01-16T01:07:24;3.50;;;1.30;;
45136;SDS011;30894;51.740;19.498;2024-01-16T01:09:51;3.22;;;1.80;;
45136;SDS011;30894;51.740;19.498;2024-01-16T01:12:17;6.43;;;1.77;;
45136;SDS011;30894;51.740;19.498;2024-01-16T01:14:44;2.00;;;1.02;;
45136;SDS011;30894;51.740;19.498;2024-01-16T01:17:10;2.17;;;1.30;;
45136;SDS011;30894;51.740;19.498;2024-01-16T01:19:36;3.35;;;1.02;;
45136;SDS011;30894;51.740;19.498;2024-01-16T01:22:02;4.05;;;1.58;;
45136;SDS011;30894;51.740;19.498;2024-01-16T01:24:28;4.78;;;1.20;;
45136;SDS011;30894;51.740;19.498;2024-01-16T01:26:54;2.80;;;1.45;;
45136;SDS011;30894;51.740;19.498;2024-01-16T01:29:21;1.25;;;0.82;;
45136;SDS011;30894;51.740;19.498;2024-01-16T01:31:47;4.72;;;1.40;;
45136;SDS011;30894;51.740;19.498;2024-01-16T01:34:13;2.92;;;1.40;;
45136;SDS011;30894;51.740;19.498;2024-01-16T01:36:40;3.08;;;1.27;;
45136;SDS011;30894;51.740;19.498;2024-01-16T01:39:06;1.15;;;0.85;;
45136;SDS011;30894;51.740;19.498;2024-01-16T01:41:32;4.45;;;1.00;;
45136;SDS011;30894;51.740;19.498;2024-01-16T01:43:59;1.42;;;0.98;;
45136;SDS011;30894;51.740;19.498;2024-01-16T01:46:24;2.72;;;1.23;;
45136;SDS011;30894;51.740;19.498;2024-01-16T01:48:51;2.65;;;1.30;;
45136;SDS011;30894;51.740;19.498;2024-01-16T01:51:18;2.22;;;1.13;;
45136;SDS011;30894;51.740;19.498;2024-01-16T01:53:45;1.85;;;0.70;;
45136;SDS011;30894;51.740;19.498;2024-01-16T01:56:14;4.47;;;1.15;;
45136;SDS011;30894;51.740;19.498;2024-01-16T01:58:43;2.47;;;1.05;;
45136;SDS011;30894;51.740;19.498;2024-01-16T02:01:13;1.45;;;0.93;;
45136;SDS011;30894;51.740;19.498;2024-01-16T02:03:45;2.88;;;1.40;;
45136;SDS011;30894;51.740;19.498;2024-01-16T02:06:12;4.57;;;1.13;;
45136;SDS011;30894;51.740;19.498;2024-01-16T02:08:42;1.63;;;1.20;;
45136;SDS011;30894;51.740;19.498;2024-01-16T02:11:10;2.90;;;0.90;;
45136;SDS011;30894;51.740;19.498;2024-01-16T02:13:36;3.35;;;0.90;;
45136;SDS011;30894;51.740;19.498;2024-01-16T02:16:02;5.93;;;1.45;;
45136;SDS011;30894;51.740;19.498;2024-01-16T02:18:29;2.00;;;0.85;;
45136;SDS011;30894;51.740;19.498;2024-01-16T02:20:57;2.90;;;0.98;;
45136;SDS011;30894;51.740;19.498;2024-01-16T02:23:29;3.22;;;1.35;;
45136;SDS011;30894;51.740;19.498;2024-01-16T02:25:56;2.35;;;1.10;;
45136;SDS011;30894;51.740;19.498;2024-01-16T02:28:22;0.93;;;0.77;;
45136;SDS011;30894;51.740;19.498;2024-01-16T02:30:49;3.75;;;1.20;;
45136;SDS011;30894;51.740;19.498;2024-01-16T02:33:15;3.28;;;1.55;;
45136;SDS011;30894;51.740;19.498;2024-01-16T02:35:41;2.38;;;1.20;;
45136;SDS011;30894;51.740;19.498;2024-01-16T02:38:07;5.20;;;1.70;;
45136;SDS011;30894;51.740;19.498;2024-01-16T02:40:33;7.03;;;1.02;;
45136;SDS011;30894;51.740;19.498;2024-01-16T02:42:59;1.95;;;1.20;;
45136;SDS011;30894;51.740;19.498;2024-01-16T02:45:25;2.10;;;1.10;;
45136;SDS011;30894;51.740;19.498;2024-01-16T02:47:52;2.25;;;1.10;;
45136;SDS011;30894;51.740;19.498;2024-01-16T02:50:17;1.90;;;1.05;;
45136;SDS011;30894;51.740;19.498;2024-01-16T02:52:46;3.78;;;1.08;;
45136;SDS011;30894;51.740;19.498;2024-01-16T02:55:12;6.00;;;1.23;;
45136;SDS011;30894;51.740;19.498;2024-01-16T02:57:38;2.00;;;1.00;;
45136;SDS011;30894;51.740;19.498;2024-01-16T03:00:04;3.38;;;1.15;;
45136;SDS011;30894;51.740;19.498;2024-01-16T03:02:33;1.65;;;1.05;;
45136;SDS011;30894;51.740;19.498;2024-01-16T03:04:59;4.45;;;1.33;;
45136;SDS011;30894;51.740;19.498;2024-01-16T03:07:25;3.00;;;1.05;;
45136;SDS011;30894;51.740;19.498;2024-01-16T03:09:51;5.45;;;1.10;;
45136;SDS011;30894;51.740;19.498;2024-01-16T03:12:17;1.52;;;1.10;;
45136;SDS011;30894;51.740;19.498;2024-01-16T03:14:43;2.33;;;1.40;;
45136;SDS011;30894;51.740;19.498;2024-01-16T03:17:10;2.70;;;1.13;;
45136;SDS011;30894;51.740;19.498;2024-01-16T03:19:36;2.22;;;1.08;;
45136;SDS011;30894;51.740;19.498;2024-01-16T03:22:06;0.82;;;0.73;;
45136;SDS011;30894;51.740;19.498;2024-01-16T03:24:32;0.98;;;0.70;;
45136;SDS011;30894;51.740;19.498;2024-01-16T03:26:58;0.70;;;0.68;;
45136;SDS011;30894;51.740;19.498;2024-01-16T03:29:24;2.40;;;0.88;;
45136;SDS011;30894;51.740;19.498;2024-01-16T03:31:50;1.10;;;0.90;;
45136;SDS011;30894;51.740;19.498;2024-01-16T03:34:16;4.25;;;1.55;;
45136;SDS011;30894;51.740;19.498;2024-01-16T03:36:43;2.72;;;1.20;;
45136;SDS011;30894;51.740;19.498;2024-01-16T03:39:09;3.13;;;1.70;;
45136;SDS011;30894;51.740;19.498;2024-01-16T03:41:35;2.60;;;1.02;;
45136;SDS011;30894;51.740;19.498;2024-01-16T03:44:01;3.17;;;1.60;;
45136;SDS011;30894;51.740;19.498;2024-01-16T03:46:27;2.35;;;1.08;;
45136;SDS011;30894;51.740;19.498;2024-01-16T03:48:53;1.33;;;0.90;;
45136;SDS011;30894;51.740;19.498;2024-01-16T03:51:20;4.03;;;1.65;;
45136;SDS011;30894;51.740;19.498;2024-01-16T03:53:46;1.20;;;1.00;;
45136;SDS011;30894;51.740;19.498;2024-01-16T03:56:12;4.90;;;1.75;;
45136;SDS011;30894;51.740;19.498;2024-01-16T03:58:39;2.08;;;1.20;;
45136;SDS011;30894;51.740;19.498;2024-01-16T04:01:07;2.53;;;1.10;;
45136;SDS011;30894;51.740;19.498;2024-01-16T04:03:34;1.70;;;1.30;;
45136;SDS011;30894;51.740;19.498;2024-01-16T04:06:00;3.63;;;1.20;;
45136;SDS011;30894;51.740;19.498;2024-01-16T04:08:26;2.85;;;1.20;;
45136;SDS011;30894;51.740;19.498;2024-01-16T04:10:52;4.15;;;1.20;;
45136;SDS011;30894;51.740;19.498;2024-01-16T04:13:18;2.42;;;0.93;;
45136;SDS011;30894;51.740;19.498;2024-01-16T04:15:45;1.52;;;0.93;;
45136;SDS011;30894;51.740;19.498;2024-01-16T04:18:11;1.58;;;0.98;;
45136;SDS011;30894;51.740;19.498;2024-01-16T04:20:37;3.15;;;1.48;;
45136;SDS011;30894;51.740;19.498;2024-01-16T04:23:03;3.40;;;1.05;;
45136;SDS011;30894;51.740;19.498;2024-01-16T04:25:29;3.17;;;0.95;;
45136;SDS011;30894;51.740;19.498;2024-01-16T04:27:55;2.30;;;0.95;;
45136;SDS011;30894;51.740;19.498;2024-01-16T04:30:21;4.57;;;1.17;;
45136;SDS011;30894;51.740;19.498;2024-01-16T04:32:47;2.20;;;1.15;;
45136;SDS011;30894;51.740;19.498;2024-01-16T04:35:14;2.60;;;1.13;;
45136;SDS011;30894;51.740;19.498;2024-01-16T04:37:40;1.65;;;1.10;;
45136;SDS011;30894;51.740;19.498;2024-01-16T04:40:06;1.20;;;0.90;;
45136;SDS011;30894;51.740;19.498;2024-01-16T04:42:33;1.63;;;1.27;;
45136;SDS011;30894;51.740;19.498;2024-01-16T04:44:59;3.08;;;1.45;;
45136;SDS011;30894;51.740;19.498;2024-01-16T04:47:25;2.65;;;0.90;;
45136;SDS011;30894;51.740;19.498;2024-01-16T04:49:52;2.17;;;1.00;;
45136;SDS011;30894;51.740;19.498;2024-01-16T04:52:18;3.95;;;1.38;;
45136;SDS011;30894;51.740;19.498;2024-01-16T04:54:44;2.47;;;1.50;;
45136;SDS011;30894;51.740;19.498;2024-01-16T04:57:10;1.90;;;1.20;;
45136;SDS011;30894;51.740;19.498;2024-01-16T04:59:37;2.88;;;1.27;;
45136;SDS011;30894;51.740;19.498;2024-01-16T05:02:03;2.78;;;1.08;;
45136;SDS011;30894;51.740;19.498;2024-01-16T05:04:29;1.63;;;1.05;;
45136;SDS011;30894;51.740;19.498;2024-01-16T05:06:55;3.95;;;1.63;;
45136;SDS011;30894;51.740;19.498;2024-01-16T05:09:21;2.60;;;1.17;;
45136;SDS011;30894;51.740;19.498;2024-01-16T05:11:53;3.47;;;1.30;;
45136;SDS011;30894;51.740;19.498;2024-01-16T05:14:22;4.30;;;1.70;;
45136;SDS011;30894;51.740;19.498;2024-01-16T05:16:51;3.70;;;1.17;;
45136;SDS011;30894;51.740;19.498;2024-01-16T05:19:18;4.68;;;1.63;;
45136;SDS011;30894;51.740;19.498;2024-01-16T05:21:44;1.83;;;1.00;;
45136;SDS011;30894;51.740;19.498;2024-01-16T05:24:11;2.70;;;1.17;;
45136;SDS011;30894;51.740;19.498;2024-01-16T05:26:37;3.85;;;1.30;;
45136;SDS011;30894;51.740;19.498;2024-01-16T05:29:03;4.38;;;1.35;;
45136;SDS011;30894;51.740;19.498;2024-01-16T05:31:30;2.95;;;1.73;;
45136;SDS011;30894;51.740;19.498;2024-01-16T05:33:56;2.55;;;1.42;;
45136;SDS011;30894;51.740;19.498;2024-01-16T05:36:23;7.47;;;1.55;;
45136;SDS011;30894;51.740;19.498;2024-01-16T05:38:50;3.20;;;1.83;;
45136;SDS011;30894;51.740;19.498;2024-01-16T05:41:18;3.20;;;1.90;;
45136;SDS011;30894;51.740;19.498;2024-01-16T05:43:44;3.85;;;1.60;;
45136;SDS011;30894;51.740;19.498;2024-01-16T05:46:10;4.60;;;1.50;;
45136;SDS011;30894;51.740;19.498;2024-01-16T05:48:40;3.78;;;1.40;;
45136;SDS011;30894;51.740;19.498;2024-01-16T05:51:06;2.00;;;1.70;;
45136;SDS011;30894;51.740;19.498;2024-01-16T05:53:33;3.85;;;1.73;;
45136;SDS011;30894;51.740;19.498;2024-01-16T05:55:59;2.03;;;1.23;;
45136;SDS011;30894;51.740;19.498;2024-01-16T05:58:25;3.20;;;1.90;;
45136;SDS011;30894;51.740;19.498;2024-01-16T06:00:51;4.32;;;1.60;;
45136;SDS011;30894;51.740;19.498;2024-01-16T06:03:17;5.35;;;2.17;;
45136;SDS011;30894;51.740;19.498;2024-01-16T06:05:44;5.43;;;1.27;;
45136;SDS011;30894;51.740;19.498;2024-01-16T06:08:10;1.58;;;1.10;;
45136;SDS011;30894;51.740;19.498;2024-01-16T06:10:36;4.18;;;1.80;;
45136;SDS011;30894;51.740;19.498;2024-01-16T06:13:02;4.97;;;2.20;;
45136;SDS011;30894;51.740;19.498;2024-01-16T06:15:28;6.25;;;1.60;;
45136;SDS011;30894;51.740;19.498;2024-01-16T06:17:54;4.30;;;1.77;;
45136;SDS011;30894;51.740;19.498;2024-01-16T06:20:20;4.20;;;1.83;;
45136;SDS011;30894;51.740;19.498;2024-01-16T06:22:49;7.38;;;2.03;;
45136;SDS011;30894;51.740;19.498;2024-01-16T06:25:15;3.80;;;1.42;;
45136;SDS011;30894;51.740;19.498;2024-01-16T06:27:41;3.13;;;1.83;;
45136;SDS011;30894;51.740;19.498;2024-01-16T06:30:07;2.58;;;1.63;;
45136;SDS011;30894;51.740;19.498;2024-01-16T06:32:35;5.38;;;2.10;;
45136;SDS011;30894;51.740;19.498;2024-01-16T06:35:02;5.80;;;2.40;;
45136;SDS011;30894;51.740;19.498;2024-01-16T06:37:28;8.13;;;3.05;;
45136;SDS011;30894;51.740;19.498;2024-01-16T06:39:54;5.78;;;2.90;;
45136;SDS011;30894;51.740;19.498;2024-01-16T06:42:20;6.22;;;2.72;;
45136;SDS011;30894;51.740;19.498;2024-01-16T06:44:46;7.35;;;2.70;;
45136;SDS011;30894;51.740;19.498;2024-01-16T06:47:12;5.53;;;2.03;;
45136;SDS011;30894;51.740;19.498;2024-01-16T06:49:38;9.52;;;2.80;;
45136;SDS011;30894;51.740;19.498;2024-01-16T06:52:06;7.40;;;2.70;;
45136;SDS011;30894;51.740;19.498;2024-01-16T06:54:33;5.70;;;1.88;;
45136;SDS011;30894;51.740;19.498;2024-01-16T06:57:00;5.53;;;1.95;;
45136;SDS011;30894;51.740;19.498;2024-01-16T06:59:26;4.20;;;2.20;;
45136;SDS011;30894;51.740;19.498;2024-01-16T07:01:52;4.95;;;1.95;;
45136;SDS011;30894;51.740;19.498;2024-01-16T07:04:19;8.82;;;2.80;;
45136;SDS011;30894;51.740;19.498;2024-01-16T07:06:46;5.68;;;2.78;;
45136;SDS011;30894;51.740;19.498;2024-01-16T07:09:12;7.15;;;3.13;;
45136;SDS011;30894;51.740;19.498;2024-01-16T07:11:39;7.05;;;2.58;;
45136;SDS011;30894;51.740;19.498;2024-01-16T07:14:08;7.18;;;2.80;;
45136;SDS011;30894;51.740;19.498;2024-01-16T07:16:35;6.57;;;2.53;;
45136;SDS011;30894;51.740;19.498;2024-01-16T07:19:01;9.98;;;2.88;;
45136;SDS011;30894;51.740;19.498;2024-01-16T07:21:28;9.43;;;2.75;;
45136;SDS011;30894;51.740;19.498;2024-01-16T07:23:54;7.88;;;2.50;;
45136;SDS011;30894;51.740;19.498;2024-01-16T07:26:21;6.38;;;2.65;;
45136;SDS011;30894;51.740;19.498;2024-01-16T07:28:49;7.03;;;2.75;;
45136;SDS011;30894;51.740;19.498;2024-01-16T07:31:16;5.95;;;3.05;;
45136;SDS011;30894;51.740;19.498;2024-01-16T07:33:42;8.68;;;3.50;;
45136;SDS011;30894;51.740;19.498;2024-01-16T07:36:09;8.32;;;3.95;;
45136;SDS011;30894;51.740;19.498;2024-01-16T07:38:37;11.50;;;5.65;;
45136;SDS011;30894;51.740;19.498;2024-01-16T07:41:03;18.30;;;6.32;;
45136;SDS011;30894;51.740;19.498;2024-01-16T07:43:30;16.33;;;6.55;;
45136;SDS011;30894;51.740;19.498;2024-01-16T07:45:58;22.02;;;6.68;;
45136;SDS011;30894;51.740;19.498;2024-01-16T07:48:24;14.45;;;6.85;;
45136;SDS011;30894;51.740;19.498;2024-01-16T07:50:50;25.05;;;6.88;;
45136;SDS011;30894;51.740;19.498;2024-01-16T07:53:17;19.00;;;6.13;;
45136;SDS011;30894;51.740;19.498;2024-01-16T07:55:43;17.50;;;6.25;;
45136;SDS011;30894;51.740;19.498;2024-01-16T07:58:10;13.27;;;5.25;;
45136;SDS011;30894;51.740;19.498;2024-01-16T08:00:37;10.98;;;4.43;;
45136;SDS011;30894;51.740;19.498;2024-01-16T08:03:04;22.77;;;5.15;;
45136;SDS011;30894;51.740;19.498;2024-01-16T08:05:33;10.50;;;3.35;;
45136;SDS011;30894;51.740;19.498;2024-01-16T08:07:59;9.68;;;3.22;;
45136;SDS011;30894;51.740;19.498;2024-01-16T08:10:25;8.38;;;3.10;;
45136;SDS011;30894;51.740;19.498;2024-01-16T08:12:51;8.88;;;2.05;;
45136;SDS011;30894;51.740;19.498;2024-01-16T08:15:18;7.65;;;2.13;;
45136;SDS011;30894;51.740;19.498;2024-01-16T08:17:43;2.30;;;1.55;;
45136;SDS011;30894;51.740;19.498;2024-01-16T08:20:10;6.63;;;2.67;;
45136;SDS011;30894;51.740;19.498;2024-01-16T08:22:37;5.68;;;2.08;;
45136;SDS011;30894;51.740;19.498;2024-01-16T08:25:03;4.18;;;2.30;;
45136;SDS011;30894;51.740;19.498;2024-01-16T08:27:30;6.63;;;2.20;;
45136;SDS011;30894;51.740;19.498;2024-01-16T08:29:57;5.80;;;2.97;;
45136;SDS011;30894;51.740;19.498;2024-01-16T08:32:23;9.93;;;3.40;;
45136;SDS011;30894;51.740;19.498;2024-01-16T08:34:50;6.70;;;2.75;;
45136;SDS011;30894;51.740;19.498;2024-01-16T08:37:16;7.80;;;3.50;;
45136;SDS011;30894;51.740;19.498;2024-01-16T08:39:42;8.38;;;3.30;;
45136;SDS011;30894;51.740;19.498;2024-01-16T08:42:08;6.32;;;2.60;;
45136;SDS011;30894;51.740;19.498;2024-01-16T08:44:38;4.13;;;2.30;;
45136;SDS011;30894;51.740;19.498;2024-01-16T08:47:04;6.97;;;2.65;;
45136;SDS011;30894;51.740;19.498;2024-01-16T08:49:32;5.07;;;1.95;;
45136;SDS011;30894;51.740;19.498;2024-01-16T08:51:58;6.82;;;2.45;;
45136;SDS011;30894;51.740;19.498;2024-01-16T08:54:24;8.93;;;3.05;;
45136;SDS011;30894;51.740;19.498;2024-01-16T08:56:52;4.55;;;2.15;;
45136;SDS011;30894;51.740;19.498;2024-01-16T08:59:18;7.18;;;2.70;;
45136;SDS011;30894;51.740;19.498;2024-01-16T09:01:44;6.03;;;2.50;;
45136;SDS011;30894;51.740;19.498;2024-01-16T09:04:10;5.40;;;2.30;;
45136;SDS011;30894;51.740;19.498;2024-01-16T09:06:37;5.45;;;2.20;;
45136;SDS011;30894;51.740;19.498;2024-01-16T09:09:03;7.35;;;2.58;;
45136;SDS011;30894;51.740;19.498;2024-01-16T09:11:30;8.13;;;2.70;;
45136;SDS011;30894;51.740;19.498;2024-01-16T09:13:57;4.30;;;1.35;;
45136;SDS011;30894;51.740;19.498;2024-01-16T09:16:23;4.70;;;2.20;;
45136;SDS011;30894;51.740;19.498;2024-01-16T09:18:50;3.40;;;1.75;;
45136;SDS011;30894;51.740;19.498;2024-01-16T09:21:16;8.68;;;2.30;;
45136;SDS011;30894;51.740;19.498;2024-01-16T09:23:43;6.85;;;2.28;;
45136;SDS011;30894;51.740;19.498;2024-01-16T09:26:09;7.10;;;2.38;;
45136;SDS011;30894;51.740;19.498;2024-01-16T09:28:36;6.10;;;2.33;;
45136;SDS011;30894;51.740;19.498;2024-01-16T09:31:02;4.82;;;2.20;;
45136;SDS011;30894;51.740;19.498;2024-01-16T09:33:29;4.65;;;1.98;;
45136;SDS011;30894;51.740;19.498;2024-01-16T09:35:55;7.45;;;2.42;;
45136;SDS011;30894;51.740;19.498;2024-01-16T09:38:21;4.35;;;2.25;;
45136;SDS011;30894;51.740;19.498;2024-01-16T09:40:47;6.50;;;1.88;;
45136;SDS011;30894;51.740;19.498;2024-01-16T09:43:18;4.53;;;2.33;;
45136;SDS011;30894;51.740;19.498;2024-01-16T09:45:45;6.68;;;2.60;;
45136;SDS011;30894;51.740;19.498;2024-01-16T09:48:14;8.35;;;2.65;;
45136;SDS011;30894;51.740;19.498;2024-01-16T09:50:41;5.95;;;2.05;;
45136;SDS011;30894;51.740;19.498;2024-01-16T09:53:07;5.70;;;2.60;;
45136;SDS011;30894;51.740;19.498;2024-01-16T09:55:33;4.88;;;2.40;;
45136;SDS011;30894;51.740;19.498;2024-01-16T09:58:00;4.18;;;1.75;;
45136;SDS011;30894;51.740;19.498;2024-01-16T10:00:28;3.75;;;1.63;;
45136;SDS011;30894;51.740;19.498;2024-01-16T10:02:56;4.82;;;1.90;;
45136;SDS011;30894;51.740;19.498;2024-01-16T10:05:24;4.47;;;2.00;;
45136;SDS011;30894;51.740;19.498;2024-01-16T10:07:54;5.22;;;2.47;;
45136;SDS011;30894;51.740;19.498;2024-01-16T10:10:20;4.85;;;2.10;;
45136;SDS011;30894;51.740;19.498;2024-01-16T10:12:47;7.53;;;1.73;;
45136;SDS011;30894;51.740;19.498;2024-01-16T10:15:15;3.97;;;2.13;;
45136;SDS011;30894;51.740;19.498;2024-01-16T10:17:42;3.63;;;1.92;;
45136;SDS011;30894;51.740;19.498;2024-01-16T10:20:09;2.58;;;1.40;;
45136;SDS011;30894;51.740;19.498;2024-01-16T10:22:43;6.47;;;2.22;;
45136;SDS011;30894;51.740;19.498;2024-01-16T10:25:20;6.60;;;2.45;;
45136;SDS011;30894;51.740;19.498;2024-01-16T10:27:48;6.95;;;3.08;;
45136;SDS011;30894;51.740;19.498;2024-01-16T10:30:14;5.93;;;2.28;;
45136;SDS011;30894;51.740;19.498;2024-01-16T10:32:41;6.20;;;2.42;;
45136;SDS011;30894;51.740;19.498;2024-01-16T10:35:09;5.85;;;2.60;;
45136;SDS011;30894;51.740;19.498;2024-01-16T10:37:43;5.50;;;2.40;;
45136;SDS011;30894;51.740;19.498;2024-01-16T10:42:46;6.47;;;2.28;;
45136;SDS011;30894;51.740;19.498;2024-01-16T10:45:22;4.88;;;2.10;;
45136;SDS011;30894;51.740;19.498;2024-01-16T10:48:01;4.93;;;2.20;;
45136;SDS011;30894;51.740;19.498;2024-01-16T10:50:32;7.88;;;2.20;;
45136;SDS011;30894;51.740;19.498;2024-01-16T10:53:00;5.10;;;2.55;;
45136;SDS011;30894;51.740;19.498;2024-01-16T10:55:30;5.45;;;2.30;;
45136;SDS011;30894;51.740;19.498;2024-01-16T10:58:04;6.38;;;2.50;;
45136;SDS011;30894;51.740;19.498;2024-01-16T11:00:32;5.40;;;2.33;;
45136;SDS011;30894;51.740;19.498;2024-01-16T11:03:09;4.45;;;2.35;;
45136;SDS011;30894;51.740;19.498;2024-01-16T11:05:44;4.97;;;2.42;;
45136;SDS011;30894;51.740;19.498;2024-01-16T11:08:11;6.95;;;2.00;;
45136;SDS011;30894;51.740;19.498;2024-01-16T11:10:42;6.30;;;2.20;;
45136;SDS011;30894;51.740;19.498;2024-01-16T11:13:09;6.22;;;2.20;;
45136;SDS011;30894;51.740;19.498;2024-01-16T11:15:37;3.08;;;1.80;;
45136;SDS011;30894;51.740;19.498;2024-01-16T11:18:04;3.33;;;1.63;;
45136;SDS011;30894;51.740;19.498;2024-01-16T11:20:31;3.30;;;1.92;;
45136;SDS011;30894;51.740;19.498;2024-01-16T11:23:00;4.78;;;2.15;;
45136;SDS011;30894;51.740;19.498;2024-01-16T11:25:30;3.83;;;2.17;;
45136;SDS011;30894;51.740;19.498;2024-01-16T11:28:14;5.28;;;2.30;;
45136;SDS011;30894;51.740;19.498;2024-01-16T11:30:41;4.97;;;2.42;;
45136;SDS011;30894;51.740;19.498;2024-01-16T11:33:44;4.45;;;2.28;;
45136;SDS011;30894;51.740;19.498;2024-01-16T11:36:03;4.15;;;1.67;;
45136;SDS011;30894;51.740;19.498;2024-01-16T11:38:29;5.28;;;1.92;;
45136;SDS011;30894;51.740;19.498;2024-01-16T11:40:57;5.25;;;1.85;;
45136;SDS011;30894;51.740;19.498;2024-01-16T11:45:59;4.88;;;2.17;;
45136;SDS011;30894;51.740;19.498;2024-01-16T11:48:35;4.13;;;2.10;;
45136;SDS011;30894;51.740;19.498;2024-01-16T11:51:22;6.82;;;2.25;;
45136;SDS011;30894;51.740;19.498;2024-01-16T11:53:50;5.22;;;2.00;;
45136;SDS011;30894;51.740;19.498;2024-01-16T11:59:06;6.22;;;2.33;;
45136;SDS011;30894;51.740;19.498;2024-01-16T12:01:53;6.90;;;2.78;;
45136;SDS011;30894;51.740;19.498;2024-01-16T12:04:23;6.40;;;3.00;;
45136;SDS011;30894;51.740;19.498;2024-01-16T12:06:56;6.88;;;2.53;;
45136;SDS011;30894;51.740;19.498;2024-01-16T12:09:25;6.47;;;3.05;;
45136;SDS011;30894;51.740;19.498;2024-01-16T12:11:56;4.72;;;2.38;;
45136;SDS011;30894;51.740;19.498;2024-01-16T12:14:24;7.18;;;2.65;;
45136;SDS011;30894;51.740;19.498;2024-01-16T12:16:50;8.43;;;3.40;;
45136;SDS011;30894;51.740;19.498;2024-01-16T12:19:17;7.93;;;3.28;;
45136;SDS011;30894;51.740;19.498;2024-01-16T12:21:43;10.52;;;3.70;;
45136;SDS011;30894;51.740;19.498;2024-01-16T12:24:11;8.27;;;4.43;;
45136;SDS011;30894;51.740;19.498;2024-01-16T12:26:37;8.05;;;3.08;;
45136;SDS011;30894;51.740;19.498;2024-01-16T12:29:07;6.78;;;3.75;;
45136;SDS011;30894;51.740;19.498;2024-01-16T12:31:33;8.38;;;3.38;;
45136;SDS011;30894;51.740;19.498;2024-01-16T12:34:09;10.23;;;3.35;;
45136;SDS011;30894;51.740;19.498;2024-01-16T12:36:37;8.32;;;3.60;;
45136;SDS011;30894;51.740;19.498;2024-01-16T12:39:03;8.43;;;3.75;;
45136;SDS011;30894;51.740;19.498;2024-01-16T12:41:31;9.27;;;3.92;;
45136;SDS011;30894;51.740;19.498;2024-01-16T12:44:03;9.13;;;3.92;;
45136;SDS011;30894;51.740;19.498;2024-01-16T12:46:29;10.90;;;4.45;;
45136;SDS011;30894;51.740;19.498;2024-01-16T12:49:03;11.70;;;4.22;;
45136;SDS011;30894;51.740;19.498;2024-01-16T12:51:32;10.13;;;4.25;;
45136;SDS011;30894;51.740;19.498;2024-01-16T12:54:11;10.93;;;3.97;;
45136;SDS011;30894;51.740;19.498;2024-01-16T12:56:41;5.75;;;2.95;;
45136;SDS011;30894;51.740;19.498;2024-01-16T12:59:09;7.85;;;3.50;;
45136;SDS011;30894;51.740;19.498;2024-01-16T13:01:44;8.30;;;3.67;;
45136;SDS011;30894;51.740;19.498;2024-01-16T13:04:12;11.75;;;3.70;;
45136;SDS011;30894;51.740;19.498;2024-01-16T13:06:41;9.15;;;4.15;;
45136;SDS011;30894;51.740;19.498;2024-01-16T13:09:09;10.48;;;3.58;;
45136;SDS011;30894;51.740;19.498;2024-01-16T13:11:48;9.13;;;3.55;;
45136;SDS011;30894;51.740;19.498;2024-01-16T13:14:26;9.13;;;4.47;;
45136;SDS011;30894;51.740;19.498;2024-01-16T13:16:52;13.70;;;4.53;;
45136;SDS011;30894;51.740;19.498;2024-01-16T13:19:21;7.72;;;4.32;;
45136;SDS011;30894;51.740;19.498;2024-01-16T13:21:48;9.00;;;3.60;;
45136;SDS011;30894;51.740;19.498;2024-01-16T13:24:14;6.63;;;3.70;;
45136;SDS011;30894;51.740;19.498;2024-01-16T13:26:42;13.50;;;4.32;;
45136;SDS011;30894;51.740;19.498;2024-01-16T13:29:09;10.80;;;3.22;;
45136;SDS011;30894;51.740;19.498;2024-01-16T13:31:34;8.23;;;3.40;;
45136;SDS011;30894;51.740;19.498;2024-01-16T13:34:01;9.23;;;4.20;;
45136;SDS011;30894;51.740;19.498;2024-01-16T13:36:27;6.30;;;3.28;;
45136;SDS011;30894;51.740;19.498;2024-01-16T13:38:53;6.53;;;3.28;;
45136;SDS011;30894;51.740;19.498;2024-01-16T13:41:19;7.88;;;3.30;;
45136;SDS011;30894;51.740;19.498;2024-01-16T13:43:47;8.60;;;4.25;;
45136;SDS011;30894;51.740;19.498;2024-01-16T13:46:15;10.63;;;3.78;;
45136;SDS011;30894;51.740;19.498;2024-01-16T13:48:43;12.60;;;4.65;;
45136;SDS011;30894;51.740;19.498;2024-01-16T13:51:10;9.98;;;4.65;;
45136;SDS011;30894;51.740;19.498;2024-01-16T13:53:37;11.77;;;4.90;;
45136;SDS011;30894;51.740;19.498;2024-01-16T13:56:03;16.15;;;4.88;;
45136;SDS011;30894;51.740;19.498;2024-01-16T13:58:29;14.05;;;4.18;;
45136;SDS011;30894;51.740;19.498;2024-01-16T14:00:56;9.52;;;3.92;;
45136;SDS011;30894;51.740;19.498;2024-01-16T14:03:23;8.35;;;3.50;;
45136;SDS011;30894;51.740;19.498;2024-01-16T14:05:49;12.15;;;3.63;;
45136;SDS011;30894;51.740;19.498;2024-01-16T14:08:17;11.98;;;3.90;;
45136;SDS011;30894;51.740;19.498;2024-01-16T14:10:43;11.30;;;4.18;;
45136;SDS011;30894;51.740;19.498;2024-01-16T14:13:10;7.20;;;3.53;;
45136;SDS011;30894;51.740;19.498;2024-01-16T14:15:36;5.93;;;3.25;;
45136;SDS011;30894;51.740;19.498;2024-01-16T14:18:02;8.27;;;3.47;;
45136;SDS011;30894;51.740;19.498;2024-01-16T14:20:28;9.35;;;3.40;;
45136;SDS011;30894;51.740;19.498;2024-01-16T14:22:58;9.90;;;3.33;;
45136;SDS011;30894;51.740;19.498;2024-01-16T14:25:25;9.73;;;3.33;;
45136;SDS011;30894;51.740;19.498;2024-01-16T14:27:58;7.05;;;3.50;;
45136;SDS011;30894;51.740;19.498;2024-01-16T14:30:28;11.02;;;3.78;;
45136;SDS011;30894;51.740;19.498;2024-01-16T14:32:56;8.52;;;3.45;;
45136;SDS011;30894;51.740;19.498;2024-01-16T14:35:22;10.50;;;4.03;;
45136;SDS011;30894;51.740;19.498;2024-01-16T14:37:50;10.05;;;3.72;;
45136;SDS011;30894;51.740;19.498;2024-01-16T14:40:16;11.93;;;3.17;;
45136;SDS011;30894;51.740;19.498;2024-01-16T14:42:46;11.30;;;4.25;;